Aeroporto :
LOGIN :

Iscrizione | Disclaimer

   EN    FR    IT 

 










Sommario :    VFR   VFR Marginale   IFR   IFR Intensivo   IFR Molto Intensivo
Visibilità : 
Base nubi : 
>= 8 km
>= 3000ft
5 / 8 km
1000 / 3000 ft
1500m / 5 km
500 / 1000 ft
800 / 1500m
200 / 500 ft
< 800m
< 200 ft
Simboli :   Temporali  Nebbia  Neve Forte  Precipitazioni Forti  Vento > 20 kt
SIGMETs :   Varie  Temporali  Ghiacco  Turbolenza  Onda orograficha  Ceneri Vulcaniche






- Altitudine del aeroporto : 209 ft
- Codice IATA : CLY


LFKC - Calvi

ULTIMO METAR :
  • 142100Z AUTO 31003KT 270V010 9999 -RA SCT060/// OVC072/// ///CB 10/08 Q0998

METARs OBSOLETI :
  • 142030Z AUTO VRB02KT 5000 RA BR FEW060/// OVC072/// ///CB 10/08 Q0998
  • 142000Z AUTO 10004KT 050V170 9999 4400 RA FEW052/// OVC068/// ///CB 11/08 Q0999
  • 141930Z AUTO VRB02KT 9999 -RA BKN070/// OVC090/// ///CB 12/07 Q0999
  • 141900Z AUTO 20004KT 170V250 9999 FEW052/// BKN072/// OVC096/// ///CB 12/07 Q0999 BECMG RA
  • 141830Z AUTO 16006KT 090V180 9999 FEW066/// BKN078/// BKN100/// ///CB 12/06 Q0999 BECMG RA

TAF TAF LFKC
Valido dal 14 a 15 ore il 15 a 15 ore UTC


141400Z 1415/1515 22005KT CAVOK TX15/1415Z TN10/1505Z
BECMG 1419/1421 RA FEW035CB BKN090 BKN200
TEMPO 1421/1506 20015G25KT 2000 TSRA BKN030 SCT035CB BKN080 BKN180
ATIS : +33 4 95 65 82 49



MetMap, La meteo Aeronautica in un colpo d'occhio ! - Copyright ORBIFLY Dicembre 2007 - Disclaimer

ORBIFLY MET'MAP TEAM :

Programmazione e sviluppo : Alexandra Zaïnal
Concezione e sviluppo : Baudouin d'Aumeries
Co-Programmazione e sviluppo : Marc-Olivier Méhu
Supporto tecnico e logistico : Manuel Goepfert
Aiuto per la traduzione : Arnaldo La Scala

Contatto : metmap@orbifly.com




FONTI E CREDITI :

   NOAA